sensor_id;sensor_type;location;lat;lon;timestamp;P1;durP1;ratioP1;P2;durP2;ratioP2
16033;SDS011;8121;51.418;6.998;2023-02-04T00:05:16;16.73;;;3.30;;
16033;SDS011;8121;51.418;6.998;2023-02-04T00:15:19;25.70;;;3.40;;
16033;SDS011;8121;51.418;6.998;2023-02-04T00:25:22;22.00;;;3.60;;
16033;SDS011;8121;51.418;6.998;2023-02-04T00:35:24;31.33;;;5.23;;
16033;SDS011;8121;51.418;6.998;2023-02-04T00:45:29;11.73;;;2.90;;
16033;SDS011;8121;51.418;6.998;2023-02-04T00:55:31;9.53;;;2.70;;
16033;SDS011;8121;51.418;6.998;2023-02-04T01:05:34;42.73;;;3.47;;
16033;SDS011;8121;51.418;6.998;2023-02-04T01:15:36;19.87;;;3.57;;
16033;SDS011;8121;51.418;6.998;2023-02-04T01:25:39;8.30;;;2.97;;
16033;SDS011;8121;51.418;6.998;2023-02-04T01:35:41;22.53;;;5.30;;
16033;SDS011;8121;51.418;6.998;2023-02-04T01:45:44;24.13;;;3.20;;
16033;SDS011;8121;51.418;6.998;2023-02-04T01:55:46;18.23;;;3.63;;
16033;SDS011;8121;51.418;6.998;2023-02-04T02:05:50;23.43;;;3.20;;
16033;SDS011;8121;51.418;6.998;2023-02-04T02:15:52;8.77;;;2.57;;
16033;SDS011;8121;51.418;6.998;2023-02-04T02:25:55;28.90;;;4.53;;
16033;SDS011;8121;51.418;6.998;2023-02-04T02:35:57;19.83;;;3.23;;
16033;SDS011;8121;51.418;6.998;2023-02-04T02:46:00;14.47;;;3.60;;
16033;SDS011;8121;51.418;6.998;2023-02-04T02:56:02;6.23;;;1.97;;
16033;SDS011;8121;51.418;6.998;2023-02-04T03:06:06;26.17;;;4.10;;
16033;SDS011;8121;51.418;6.998;2023-02-04T03:16:10;19.10;;;3.93;;
16033;SDS011;8121;51.418;6.998;2023-02-04T03:26:15;10.70;;;2.27;;
16033;SDS011;8121;51.418;6.998;2023-02-04T03:36:16;4.00;;;1.30;;
16033;SDS011;8121;51.418;6.998;2023-02-04T03:46:20;22.43;;;3.83;;
16033;SDS011;8121;51.418;6.998;2023-02-04T03:56:22;23.60;;;4.03;;
16033;SDS011;8121;51.418;6.998;2023-02-04T04:06:25;11.80;;;3.27;;
16033;SDS011;8121;51.418;6.998;2023-02-04T04:16:27;13.67;;;3.27;;
16033;SDS011;8121;51.418;6.998;2023-02-04T04:26:30;17.73;;;2.30;;
16033;SDS011;8121;51.418;6.998;2023-02-04T04:36:32;13.90;;;2.27;;
16033;SDS011;8121;51.418;6.998;2023-02-04T04:46:34;20.20;;;4.17;;
16033;SDS011;8121;51.418;6.998;2023-02-04T04:56:36;9.23;;;2.30;;
16033;SDS011;8121;51.418;6.998;2023-02-04T05:06:39;19.53;;;3.57;;
16033;SDS011;8121;51.418;6.998;2023-02-04T05:16:40;27.27;;;3.97;;
16033;SDS011;8121;51.418;6.998;2023-02-04T05:26:43;22.70;;;4.70;;
16033;SDS011;8121;51.418;6.998;2023-02-04T05:36:44;15.20;;;3.00;;
16033;SDS011;8121;51.418;6.998;2023-02-04T05:46:47;5.87;;;1.73;;
16033;SDS011;8121;51.418;6.998;2023-02-04T05:56:49;16.37;;;3.13;;
16033;SDS011;8121;51.418;6.998;2023-02-04T06:06:52;17.97;;;1.83;;
16033;SDS011;8121;51.418;6.998;2023-02-04T06:16:53;15.13;;;3.10;;
16033;SDS011;8121;51.418;6.998;2023-02-04T06:26:56;22.73;;;3.30;;
16033;SDS011;8121;51.418;6.998;2023-02-04T06:36:57;21.23;;;3.17;;
16033;SDS011;8121;51.418;6.998;2023-02-04T06:47:00;17.20;;;3.00;;
16033;SDS011;8121;51.418;6.998;2023-02-04T06:57:02;21.57;;;4.20;;
16033;SDS011;8121;51.418;6.998;2023-02-04T07:07:07;27.77;;;4.07;;
16033;SDS011;8121;51.418;6.998;2023-02-04T07:17:09;19.03;;;3.10;;
16033;SDS011;8121;51.418;6.998;2023-02-04T07:27:12;6.40;;;2.67;;
16033;SDS011;8121;51.418;6.998;2023-02-04T07:37:14;18.33;;;3.20;;
16033;SDS011;8121;51.418;6.998;2023-02-04T07:47:16;15.27;;;2.43;;
16033;SDS011;8121;51.418;6.998;2023-02-04T07:57:18;16.80;;;2.90;;
16033;SDS011;8121;51.418;6.998;2023-02-04T08:07:21;22.33;;;3.00;;
16033;SDS011;8121;51.418;6.998;2023-02-04T08:17:22;11.63;;;2.40;;
16033;SDS011;8121;51.418;6.998;2023-02-04T08:27:25;17.70;;;2.97;;
16033;SDS011;8121;51.418;6.998;2023-02-04T08:37:27;18.83;;;4.93;;
16033;SDS011;8121;51.418;6.998;2023-02-04T08:47:29;15.77;;;3.00;;
16033;SDS011;8121;51.418;6.998;2023-02-04T08:57:31;33.13;;;4.83;;
16033;SDS011;8121;51.418;6.998;2023-02-04T09:07:35;10.10;;;2.50;;
16033;SDS011;8121;51.418;6.998;2023-02-04T09:17:37;7.03;;;1.90;;
16033;SDS011;8121;51.418;6.998;2023-02-04T09:27:40;25.37;;;4.13;;
16033;SDS011;8121;51.418;6.998;2023-02-04T09:37:41;19.97;;;3.43;;
16033;SDS011;8121;51.418;6.998;2023-02-04T09:47:44;8.10;;;2.40;;
16033;SDS011;8121;51.418;6.998;2023-02-04T09:57:46;8.53;;;2.80;;
16033;SDS011;8121;51.418;6.998;2023-02-04T10:07:49;9.83;;;3.40;;
16033;SDS011;8121;51.418;6.998;2023-02-04T10:17:51;17.37;;;4.07;;
16033;SDS011;8121;51.418;6.998;2023-02-04T10:28:00;15.70;;;3.40;;
16033;SDS011;8121;51.418;6.998;2023-02-04T10:38:05;21.90;;;5.40;;
16033;SDS011;8121;51.418;6.998;2023-02-04T10:48:14;8.83;;;3.50;;
16033;SDS011;8121;51.418;6.998;2023-02-04T10:58:17;29.60;;;6.70;;
16033;SDS011;8121;51.418;6.998;2023-02-04T11:08:29;18.30;;;6.07;;
16033;SDS011;8121;51.418;6.998;2023-02-04T11:18:41;19.40;;;5.80;;
16033;SDS011;8121;51.418;6.998;2023-02-04T11:28:48;7.80;;;3.73;;
16033;SDS011;8121;51.418;6.998;2023-02-04T11:38:50;17.63;;;4.40;;
16033;SDS011;8121;51.418;6.998;2023-02-04T11:48:53;32.00;;;8.27;;
16033;SDS011;8121;51.418;6.998;2023-02-04T11:58:56;16.43;;;4.60;;
16033;SDS011;8121;51.418;6.998;2023-02-04T12:09:06;38.13;;;11.13;;
16033;SDS011;8121;51.418;6.998;2023-02-04T12:19:08;24.03;;;9.13;;
16033;SDS011;8121;51.418;6.998;2023-02-04T12:29:13;30.53;;;8.03;;
16033;SDS011;8121;51.418;6.998;2023-02-04T12:39:14;54.63;;;16.70;;
16033;SDS011;8121;51.418;6.998;2023-02-04T12:49:17;22.33;;;9.53;;
16033;SDS011;8121;51.418;6.998;2023-02-04T12:59:18;30.83;;;10.30;;
16033;SDS011;8121;51.418;6.998;2023-02-04T13:09:21;22.53;;;7.90;;
16033;SDS011;8121;51.418;6.998;2023-02-04T13:19:23;44.47;;;12.30;;
16033;SDS011;8121;51.418;6.998;2023-02-04T13:29:26;37.87;;;12.10;;
16033;SDS011;8121;51.418;6.998;2023-02-04T13:39:28;37.80;;;12.10;;
16033;SDS011;8121;51.418;6.998;2023-02-04T13:49:31;25.87;;;11.33;;
16033;SDS011;8121;51.418;6.998;2023-02-04T13:59:32;26.00;;;6.30;;
16033;SDS011;8121;51.418;6.998;2023-02-04T14:09:35;14.77;;;4.90;;
16033;SDS011;8121;51.418;6.998;2023-02-04T14:19:38;21.53;;;5.40;;
16033;SDS011;8121;51.418;6.998;2023-02-04T14:29:41;16.60;;;6.47;;
16033;SDS011;8121;51.418;6.998;2023-02-04T14:39:43;23.33;;;5.77;;
16033;SDS011;8121;51.418;6.998;2023-02-04T14:49:45;15.33;;;3.43;;
16033;SDS011;8121;51.418;6.998;2023-02-04T14:59:47;14.40;;;3.17;;
16033;SDS011;8121;51.418;6.998;2023-02-04T15:09:50;8.97;;;2.60;;
16033;SDS011;8121;51.418;6.998;2023-02-04T15:19:51;13.90;;;3.13;;
16033;SDS011;8121;51.418;6.998;2023-02-04T15:29:54;24.37;;;2.63;;
16033;SDS011;8121;51.418;6.998;2023-02-04T15:39:56;4.40;;;2.00;;
16033;SDS011;8121;51.418;6.998;2023-02-04T15:49:59;5.50;;;1.77;;
16033;SDS011;8121;51.418;6.998;2023-02-04T16:00:02;5.40;;;1.80;;
16033;SDS011;8121;51.418;6.998;2023-02-04T16:10:06;7.63;;;2.90;;
16033;SDS011;8121;51.418;6.998;2023-02-04T16:20:08;12.67;;;3.17;;
16033;SDS011;8121;51.418;6.998;2023-02-04T16:30:12;14.67;;;4.40;;
16033;SDS011;8121;51.418;6.998;2023-02-04T16:40:14;12.20;;;3.83;;
16033;SDS011;8121;51.418;6.998;2023-02-04T16:50:18;7.50;;;3.30;;
16033;SDS011;8121;51.418;6.998;2023-02-04T17:00:21;5.50;;;3.33;;
16033;SDS011;8121;51.418;6.998;2023-02-04T17:10:24;17.70;;;5.73;;
16033;SDS011;8121;51.418;6.998;2023-02-04T17:20:40;13.70;;;3.70;;
16033;SDS011;8121;51.418;6.998;2023-02-04T17:30:43;12.63;;;3.53;;
16033;SDS011;8121;51.418;6.998;2023-02-04T17:40:45;4.80;;;2.83;;
16033;SDS011;8121;51.418;6.998;2023-02-04T17:50:48;13.57;;;3.77;;
16033;SDS011;8121;51.418;6.998;2023-02-04T18:00:50;13.97;;;4.00;;
16033;SDS011;8121;51.418;6.998;2023-02-04T18:10:54;15.63;;;2.93;;
16033;SDS011;8121;51.418;6.998;2023-02-04T18:20:56;13.63;;;3.23;;
16033;SDS011;8121;51.418;6.998;2023-02-04T18:31:00;3.60;;;2.40;;
16033;SDS011;8121;51.418;6.998;2023-02-04T18:41:11;5.70;;;2.47;;
16033;SDS011;8121;51.418;6.998;2023-02-04T18:51:24;4.87;;;2.50;;
16033;SDS011;8121;51.418;6.998;2023-02-04T19:01:27;3.67;;;2.70;;
16033;SDS011;8121;51.418;6.998;2023-02-04T19:11:34;16.00;;;3.77;;
16033;SDS011;8121;51.418;6.998;2023-02-04T19:21:36;13.20;;;3.57;;
16033;SDS011;8121;51.418;6.998;2023-02-04T19:31:40;4.57;;;2.70;;
16033;SDS011;8121;51.418;6.998;2023-02-04T19:41:43;4.27;;;2.23;;
16033;SDS011;8121;51.418;6.998;2023-02-04T19:51:49;16.63;;;5.23;;
16033;SDS011;8121;51.418;6.998;2023-02-04T20:01:53;6.23;;;3.10;;
16033;SDS011;8121;51.418;6.998;2023-02-04T20:12:02;9.13;;;3.20;;
16033;SDS011;8121;51.418;6.998;2023-02-04T20:32:46;13.17;;;4.70;;
16033;SDS011;8121;51.418;6.998;2023-02-04T20:42:53;12.50;;;3.90;;
16033;SDS011;8121;51.418;6.998;2023-02-04T20:53:01;11.93;;;3.90;;
16033;SDS011;8121;51.418;6.998;2023-02-04T21:03:13;7.03;;;3.03;;
16033;SDS011;8121;51.418;6.998;2023-02-04T21:13:20;9.90;;;3.17;;
16033;SDS011;8121;51.418;6.998;2023-02-04T21:23:22;6.20;;;3.07;;
16033;SDS011;8121;51.418;6.998;2023-02-04T21:33:25;13.80;;;4.07;;
16033;SDS011;8121;51.418;6.998;2023-02-04T21:43:27;9.27;;;3.00;;
16033;SDS011;8121;51.418;6.998;2023-02-04T21:53:30;10.37;;;4.20;;
16033;SDS011;8121;51.418;6.998;2023-02-04T22:03:31;16.03;;;4.27;;
16033;SDS011;8121;51.418;6.998;2023-02-04T22:13:34;6.07;;;3.57;;
16033;SDS011;8121;51.418;6.998;2023-02-04T22:23:53;11.63;;;4.83;;
16033;SDS011;8121;51.418;6.998;2023-02-04T22:33:56;10.07;;;2.90;;
16033;SDS011;8121;51.418;6.998;2023-02-04T22:43:57;7.13;;;2.93;;
16033;SDS011;8121;51.418;6.998;2023-02-04T22:54:00;11.10;;;3.00;;
16033;SDS011;8121;51.418;6.998;2023-02-04T23:04:02;6.40;;;2.70;;
16033;SDS011;8121;51.418;6.998;2023-02-04T23:14:06;8.23;;;3.27;;
16033;SDS011;8121;51.418;6.998;2023-02-04T23:24:07;12.20;;;3.50;;
16033;SDS011;8121;51.418;6.998;2023-02-04T23:34:10;3.87;;;1.87;;
16033;SDS011;8121;51.418;6.998;2023-02-04T23:44:12;12.57;;;3.23;;
16033;SDS011;8121;51.418;6.998;2023-02-04T23:54:15;3.13;;;1.40;;
